SDM210 UUEE-UMMS
Flight info
| Callsign | SDM210 |
|---|---|
| Flight time | N/A |
| Altitude | 36000 |
| Route | LIDRI3H LIDRI T781 REPNU N858 VEPIS T526 RUHAL RUHAL2E |
| Aircraft | B742/H-VGDW/C |
Departure
| Time | 2026-05-07 15:33 |
|---|---|
| Airport | Sheremetyevo International Airport (UUEE) |
Arrival
| Time | N/A |
|---|---|
| Airport | Minsk National Airport (UMMS) |
| Time | Latitude | Longitude | Altitude | Speed | Heading |
|---|---|---|---|---|---|
| 2026-05-07 15:06 | 55.97797 | 37.41693 | 625 ft | 0 kts | 48° |
| 2026-05-07 15:22 | 55.97790 | 37.41679 | 624 ft | 2 kts | 45° |
| 2026-05-07 15:22 | 55.97780 | 37.41660 | 624 ft | 2 kts | 47° |
| 2026-05-07 15:22 | 55.97770 | 37.41639 | 624 ft | 2 kts | 48° |
| 2026-05-07 15:23 | 55.97760 | 37.41620 | 624 ft | 2 kts | 48° |
| 2026-05-07 15:23 | 55.97754 | 37.41596 | 624 ft | 2 kts | 91° |
| 2026-05-07 15:23 | 55.97758 | 37.41572 | 624 ft | 2 kts | 131° |
| 2026-05-07 15:23 | 55.97768 | 37.41559 | 624 ft | 0 kts | 164° |
| 2026-05-07 15:24 | 55.97774 | 37.41557 | 624 ft | 0 kts | 165° |
| 2026-05-07 15:26 | 55.97773 | 37.41557 | 624 ft | 0 kts | 165° |
| 2026-05-07 15:26 | 55.97743 | 37.41576 | 624 ft | 9 kts | 158° |
| 2026-05-07 15:27 | 55.97710 | 37.41690 | 624 ft | 12 kts | 81° |
| 2026-05-07 15:27 | 55.97741 | 37.41895 | 621 ft | 21 kts | 75° |
| 2026-05-07 15:27 | 55.97785 | 37.42197 | 616 ft | 19 kts | 75° |
| 2026-05-07 15:27 | 55.97843 | 37.42437 | 617 ft | 22 kts | 70° |
| 2026-05-07 15:28 | 55.97892 | 37.42754 | 614 ft | 30 kts | 74° |
| 2026-05-07 15:28 | 55.97942 | 37.43090 | 613 ft | 17 kts | 75° |
| 2026-05-07 15:28 | 55.97974 | 37.43312 | 617 ft | 17 kts | 74° |
| 2026-05-07 15:28 | 55.98009 | 37.43545 | 620 ft | 21 kts | 75° |
| 2026-05-07 15:29 | 55.98051 | 37.43831 | 623 ft | 13 kts | 75° |
| 2026-05-07 15:29 | 55.98058 | 37.43945 | 624 ft | 9 kts | 124° |
| 2026-05-07 15:29 | 55.97971 | 37.44007 | 622 ft | 17 kts | 165° |
| 2026-05-07 15:29 | 55.97823 | 37.44082 | 620 ft | 26 kts | 163° |
| 2026-05-07 15:30 | 55.97689 | 37.44141 | 618 ft | 0 kts | 165° |
| 2026-05-07 15:30 | 55.97682 | 37.44145 | 618 ft | 5 kts | 165° |
| 2026-05-07 15:30 | 55.97609 | 37.44184 | 617 ft | 15 kts | 153° |
| 2026-05-07 15:31 | 55.97562 | 37.44240 | 616 ft | 4 kts | 187° |
| 2026-05-07 15:31 | 55.97546 | 37.44212 | 616 ft | 3 kts | 255° |
| 2026-05-07 15:31 | 55.97545 | 37.44202 | 616 ft | 0 kts | 254° |
| 2026-05-07 15:32 | 55.97538 | 37.44155 | 616 ft | 18 kts | 254° |
| 2026-05-07 15:32 | 55.97438 | 37.43491 | 607 ft | 91 kts | 255° |
| 2026-05-07 15:33 | 55.97217 | 37.42008 | 617 ft | 152 kts | 255° |
| 2026-05-07 15:33 | 55.96910 | 37.40019 | 910 ft | 177 kts | 255° |
| 2026-05-07 15:33 | 55.96555 | 37.37812 | 1400 ft | 193 kts | 257° |
| 2026-05-07 15:33 | 55.96213 | 37.35452 | 2023 ft | 205 kts | 255° |
| 2026-05-07 15:34 | 55.95843 | 37.32926 | 2690 ft | 218 kts | 255° |
| 2026-05-07 15:34 | 55.95459 | 37.30344 | 3320 ft | 217 kts | 255° |
| 2026-05-07 15:34 | 55.95070 | 37.27747 | 3794 ft | 223 kts | 255° |
| 2026-05-07 15:34 | 55.94664 | 37.25042 | 4271 ft | 231 kts | 254° |
| 2026-05-07 15:35 | 55.94240 | 37.22230 | 4746 ft | 239 kts | 254° |
| 2026-05-07 15:35 | 55.93801 | 37.19315 | 5227 ft | 249 kts | 254° |
| 2026-05-07 15:35 | 55.93357 | 37.16373 | 5983 ft | 247 kts | 254° |
| 2026-05-07 15:35 | 55.92918 | 37.13468 | 6739 ft | 246 kts | 254° |
| 2026-05-07 15:36 | 55.92472 | 37.10521 | 7399 ft | 248 kts | 254° |
| 2026-05-07 15:36 | 55.92022 | 37.07551 | 8094 ft | 249 kts | 254° |
| 2026-05-07 15:36 | 55.91577 | 37.04626 | 8799 ft | 250 kts | 254° |
| 2026-05-07 15:36 | 55.91116 | 37.01583 | 9213 ft | 260 kts | 256° |
| 2026-05-07 15:37 | 55.90951 | 36.98396 | 9581 ft | 258 kts | 268° |
| 2026-05-07 15:37 | 55.90999 | 36.95195 | 9831 ft | 259 kts | 269° |
| 2026-05-07 15:37 | 55.91050 | 36.91970 | 9907 ft | 260 kts | 269° |
| 2026-05-07 15:37 | 55.91092 | 36.88789 | 9880 ft | 257 kts | 268° |
| 2026-05-07 15:38 | 55.91127 | 36.85596 | 9882 ft | 256 kts | 268° |
| 2026-05-07 15:38 | 55.91158 | 36.82433 | 9877 ft | 258 kts | 268° |
| 2026-05-07 15:38 | 55.91171 | 36.81044 | 9864 ft | 259 kts | 268° |
| 2026-05-07 15:39 | 55.91180 | 36.80009 | 9860 ft | 259 kts | 268° |
| 2026-05-07 15:39 | 55.91207 | 36.76818 | 9858 ft | 259 kts | 267° |
| 2026-05-07 15:39 | 55.90957 | 36.73674 | 9882 ft | 257 kts | 256° |
| 2026-05-07 15:40 | 55.90514 | 36.70551 | 9979 ft | 269 kts | 255° |
| 2026-05-07 15:40 | 55.90035 | 36.67214 | 10234 ft | 287 kts | 255° |
| 2026-05-07 15:40 | 55.89548 | 36.63765 | 11044 ft | 285 kts | 255° |
| 2026-05-07 15:40 | 55.89073 | 36.60389 | 11666 ft | 288 kts | 256° |
| 2026-05-07 15:41 | 55.88582 | 36.56896 | 12293 ft | 292 kts | 256° |
| 2026-05-07 15:41 | 55.88091 | 36.53403 | 12932 ft | 294 kts | 256° |
| 2026-05-07 15:41 | 55.87596 | 36.49892 | 13469 ft | 298 kts | 256° |
| 2026-05-07 15:41 | 55.87085 | 36.46273 | 14008 ft | 302 kts | 256° |
| 2026-05-07 15:42 | 55.86616 | 36.42684 | 14646 ft | 303 kts | 257° |
| 2026-05-07 15:42 | 55.86175 | 36.39014 | 15203 ft | 306 kts | 258° |
| 2026-05-07 15:42 | 55.85728 | 36.35291 | 15777 ft | 308 kts | 258° |
| 2026-05-07 15:42 | 55.85267 | 36.31596 | 16317 ft | 311 kts | 256° |
| 2026-05-07 15:43 | 55.84788 | 36.27857 | 16881 ft | 312 kts | 256° |
| 2026-05-07 15:43 | 55.84310 | 36.24069 | 17415 ft | 316 kts | 256° |
| 2026-05-07 15:43 | 55.83839 | 36.20297 | 17958 ft | 317 kts | 257° |
| 2026-05-07 15:43 | 55.83362 | 36.16460 | 18426 ft | 322 kts | 257° |
| 2026-05-07 15:44 | 55.82874 | 36.12529 | 18985 ft | 324 kts | 257° |
| 2026-05-07 15:44 | 55.82393 | 36.08658 | 19554 ft | 325 kts | 257° |
| 2026-05-07 15:44 | 55.81904 | 36.04735 | 20027 ft | 329 kts | 257° |
| 2026-05-07 15:44 | 55.81438 | 36.01005 | 20500 ft | 332 kts | 257° |
| 2026-05-07 15:45 | 55.81225 | 35.99316 | 20678 ft | 334 kts | 257° |
| 2026-05-07 15:45 | 55.80722 | 35.95333 | 21197 ft | 336 kts | 257° |
| 2026-05-07 15:45 | 55.80205 | 35.91268 | 21672 ft | 339 kts | 257° |
| 2026-05-07 15:45 | 55.79684 | 35.87191 | 22095 ft | 343 kts | 257° |
| 2026-05-07 15:46 | 55.78619 | 35.78864 | 23018 ft | 349 kts | 257° |
| 2026-05-07 15:46 | 55.78079 | 35.74660 | 23475 ft | 352 kts | 257° |
| 2026-05-07 15:46 | 55.77846 | 35.72843 | 23642 ft | 354 kts | 257° |
| 2026-05-07 15:47 | 55.77312 | 35.68700 | 23960 ft | 360 kts | 257° |
| 2026-05-07 15:47 | 55.76778 | 35.64580 | 24327 ft | 363 kts | 257° |
| 2026-05-07 15:47 | 55.76196 | 35.60083 | 24892 ft | 363 kts | 257° |
| 2026-05-07 15:47 | 55.75638 | 35.55799 | 25279 ft | 366 kts | 258° |
| 2026-05-07 15:48 | 55.75235 | 35.51310 | 25660 ft | 368 kts | 264° |
| 2026-05-07 15:48 | 55.75036 | 35.46787 | 26132 ft | 369 kts | 266° |
| 2026-05-07 15:48 | 55.74874 | 35.42309 | 26514 ft | 372 kts | 266° |
| 2026-05-07 15:48 | 55.74700 | 35.37712 | 26898 ft | 374 kts | 266° |
| 2026-05-07 15:49 | 55.74511 | 35.33084 | 27328 ft | 375 kts | 264° |
| 2026-05-07 15:49 | 55.74433 | 35.31388 | 27469 ft | 376 kts | 264° |
| 2026-05-07 15:49 | 55.74430 | 35.31319 | 27475 ft | 376 kts | 264° |
| 2026-05-07 15:49 | 55.74240 | 35.27438 | 27774 ft | 379 kts | 264° |
| 2026-05-07 15:50 | 55.74047 | 35.23449 | 28107 ft | 381 kts | 264° |
| 2026-05-07 15:50 | 55.73827 | 35.18789 | 28519 ft | 382 kts | 265° |
| 2026-05-07 15:50 | 55.73610 | 35.14098 | 28867 ft | 384 kts | 265° |
| 2026-05-07 15:50 | 55.73394 | 35.09389 | 29264 ft | 386 kts | 265° |
| 2026-05-07 15:51 | 55.73177 | 35.04634 | 29597 ft | 388 kts | 265° |
| 2026-05-07 15:51 | 55.72962 | 34.99840 | 29970 ft | 390 kts | 265° |
| 2026-05-07 15:51 | 55.72748 | 34.95074 | 30383 ft | 391 kts | 265° |
| 2026-05-07 15:51 | 55.72531 | 34.90281 | 30732 ft | 393 kts | 265° |
| 2026-05-07 15:52 | 55.72313 | 34.85496 | 30970 ft | 397 kts | 265° |
| 2026-05-07 15:52 | 55.72088 | 34.80616 | 31326 ft | 399 kts | 264° |
| 2026-05-07 15:52 | 55.71861 | 34.75753 | 31698 ft | 399 kts | 264° |
| 2026-05-07 15:52 | 55.71630 | 34.70826 | 32024 ft | 401 kts | 264° |
| 2026-05-07 15:53 | 55.71396 | 34.65888 | 32372 ft | 402 kts | 264° |
| 2026-05-07 15:53 | 55.71157 | 34.60972 | 32695 ft | 403 kts | 263° |
| 2026-05-07 15:53 | 55.70578 | 34.56134 | 32891 ft | 407 kts | 253° |
| 2026-05-07 15:53 | 55.69677 | 34.51426 | 33228 ft | 407 kts | 251° |
| 2026-05-07 15:54 | 55.68693 | 34.46724 | 33508 ft | 410 kts | 250° |
| 2026-05-07 15:54 | 55.67690 | 34.41987 | 33767 ft | 412 kts | 250° |
| 2026-05-07 15:54 | 55.66684 | 34.37206 | 34055 ft | 414 kts | 251° |
| 2026-05-07 15:54 | 55.66025 | 34.34060 | 34286 ft | 414 kts | 250° |